Airfield :
LOGIN :

Register | Disclaimer

   EN    FR    IT 

 










Legend :    VFR   Marginal VFR   IFR   Intensive IFR   Very Intensive IFR
Visi :
Ceiling :
>= 8 km
>= 3000ft
5 to 8 km
1000 to 3000 ft
1500m to 5 km
500 to 1000 ft
800 to 1500m
200 to 500 ft
< 800m
< 200 ft
Symbols :   Thunderstorms  Fog  Heavy snow  Heavy precipitations  Wind > 20 kt
SIGMETs :     Misc.  Thunderstorms  Icing  Turbulence  Mountain Waves  Volcanic Ashes







- Airport Elevation : 17 ft
- IATA code : MPL
- Download approach charts


LFMT - Montpellier Méditerranée

CURRENT METAR :
  • 161730Z AUTO 20006KT CAVOK 25/19 Q1014 NOSIG

EXPIRED METARs :
  • 161700Z AUTO 20007KT CAVOK 26/20 Q1014 NOSIG
  • 161630Z AUTO 18007KT 150V210 CAVOK 27/20 Q1014 NOSIG
  • 161600Z AUTO 18007KT CAVOK 27/19 Q1014 NOSIG
  • 161530Z AUTO 17007KT 140V200 CAVOK 27/20 Q1014 NOSIG
  • 161500Z AUTO 17008KT CAVOK 27/19 Q1014 NOSIG
  • 161430Z AUTO 16009KT CAVOK 27/19 Q1014 NOSIG

TAF TAF LFMT
Valid from the 16 at 15:00 until the 17 at 15:00 UTC


161400Z 1615/1715 15008KT CAVOK
BECMG 1622/1624 SCT010
BECMG 1703/1705 32008KT
BECMG 1710/1712 BKN010TCU
PROB30
TEMPO 1712/1715 3000 TSRA BR BKN012CB
ATIS : +33 4 67 13 11 70
No reported NOTAMs for that airfield.



MET'MAP, your aeronautical weather chart ! - Copyright ORBIFLY December 2007 - Disclaimer

ORBIFLY MET'MAP TEAM :

Programming & Development : Alexandra Zaïnal
Concept & Development : Baudouin d'Aumeries
Co-Development & Prog : Marc-Olivier Méhu
Technical & hardware support : Manuel Goepfert

Contact : metmap@orbifly.com




SOURCES & CREDITS :

   NOAA